sensor_id;sensor_type;location;lat;lon;timestamp;P1;durP1;ratioP1;P2;durP2;ratioP2
65037;SDS011;51605;47.040;15.294;2023-09-19T00:00:30;302.77;;;199.38;;
65037;SDS011;51605;47.040;15.294;2023-09-19T00:02:57;96.97;;;89.68;;
65037;SDS011;51605;47.040;15.294;2023-09-19T00:05:27;146.25;;;132.52;;
65037;SDS011;51605;47.040;15.294;2023-09-19T00:07:55;214.73;;;150.55;;
65037;SDS011;51605;47.040;15.294;2023-09-19T00:10:23;144.73;;;135.23;;
65037;SDS011;51605;47.040;15.294;2023-09-19T00:12:56;118.45;;;106.22;;
65037;SDS011;51605;47.040;15.294;2023-09-19T00:15:26;604.28;;;329.23;;
65037;SDS011;51605;47.040;15.294;2023-09-19T00:17:56;486.85;;;157.68;;
65037;SDS011;51605;47.040;15.294;2023-09-19T00:20:22;338.60;;;224.52;;
65037;SDS011;51605;47.040;15.294;2023-09-19T00:22:49;465.23;;;234.18;;
65037;SDS011;51605;47.040;15.294;2023-09-19T00:25:18;334.58;;;170.40;;
65037;SDS011;51605;47.040;15.294;2023-09-19T00:30:13;277.10;;;119.53;;
65037;SDS011;51605;47.040;15.294;2023-09-19T00:32:48;99.68;;;93.15;;
65037;SDS011;51605;47.040;15.294;2023-09-19T00:35:19;112.57;;;104.82;;
65037;SDS011;51605;47.040;15.294;2023-09-19T00:37:46;117.60;;;109.70;;
65037;SDS011;51605;47.040;15.294;2023-09-19T00:40:12;192.55;;;173.10;;
65037;SDS011;51605;47.040;15.294;2023-09-19T00:42:47;136.80;;;126.90;;
65037;SDS011;51605;47.040;15.294;2023-09-19T00:45:17;121.00;;;111.88;;
65037;SDS011;51605;47.040;15.294;2023-09-19T00:47:44;341.30;;;305.75;;
65037;SDS011;51605;47.040;15.294;2023-09-19T00:50:19;157.20;;;134.80;;
65037;SDS011;51605;47.040;15.294;2023-09-19T00:52:48;446.88;;;349.48;;
65037;SDS011;51605;47.040;15.294;2023-09-19T00:55:15;767.63;;;368.80;;
65037;SDS011;51605;47.040;15.294;2023-09-19T00:57:43;197.52;;;178.93;;
65037;SDS011;51605;47.040;15.294;2023-09-19T01:00:09;295.67;;;166.60;;
65037;SDS011;51605;47.040;15.294;2023-09-19T01:02:43;122.88;;;113.93;;
65037;SDS011;51605;47.040;15.294;2023-09-19T01:05:10;138.87;;;125.80;;
65037;SDS011;51605;47.040;15.294;2023-09-19T01:07:36;176.70;;;161.57;;
65037;SDS011;51605;47.040;15.294;2023-09-19T01:10:14;319.10;;;288.95;;
65037;SDS011;51605;47.040;15.294;2023-09-19T01:15:11;61.05;;;56.95;;
65037;SDS011;51605;47.040;15.294;2023-09-19T01:18:08;89.47;;;82.72;;
65037;SDS011;51605;47.040;15.294;2023-09-19T01:31:38;92.22;;;86.18;;
65037;SDS011;51605;47.040;15.294;2023-09-19T01:34:07;216.77;;;199.60;;
65037;SDS011;51605;47.040;15.294;2023-09-19T01:36:35;121.07;;;113.38;;
65037;SDS011;51605;47.040;15.294;2023-09-19T01:39:07;149.57;;;138.45;;
65037;SDS011;51605;47.040;15.294;2023-09-19T01:44:57;139.27;;;128.70;;
65037;SDS011;51605;47.040;15.294;2023-09-19T01:47:32;144.60;;;135.27;;
65037;SDS011;51605;47.040;15.294;2023-09-19T01:53:02;83.63;;;77.68;;
65037;SDS011;51605;47.040;15.294;2023-09-19T01:55:35;67.90;;;63.53;;
65037;SDS011;51605;47.040;15.294;2023-09-19T01:58:16;88.60;;;80.43;;
65037;SDS011;51605;47.040;15.294;2023-09-19T02:00:44;94.85;;;88.10;;
65037;SDS011;51605;47.040;15.294;2023-09-19T02:03:13;149.07;;;139.75;;
65037;SDS011;51605;47.040;15.294;2023-09-19T02:05:39;65.65;;;58.65;;
65037;SDS011;51605;47.040;15.294;2023-09-19T02:08:05;79.57;;;74.13;;
65037;SDS011;51605;47.040;15.294;2023-09-19T02:10:31;114.70;;;105.15;;
65037;SDS011;51605;47.040;15.294;2023-09-19T02:12:56;69.25;;;64.32;;
65037;SDS011;51605;47.040;15.294;2023-09-19T02:15:24;101.80;;;94.72;;
65037;SDS011;51605;47.040;15.294;2023-09-19T02:17:49;107.90;;;100.65;;
65037;SDS011;51605;47.040;15.294;2023-09-19T02:20:15;83.00;;;77.30;;
65037;SDS011;51605;47.040;15.294;2023-09-19T02:22:41;106.03;;;98.82;;
65037;SDS011;51605;47.040;15.294;2023-09-19T02:25:07;391.67;;;187.20;;
65037;SDS011;51605;47.040;15.294;2023-09-19T02:27:33;1337.45;;;637.28;;
65037;SDS011;51605;47.040;15.294;2023-09-19T02:29:59;232.07;;;166.03;;
65037;SDS011;51605;47.040;15.294;2023-09-19T02:32:29;41.95;;;39.08;;
65037;SDS011;51605;47.040;15.294;2023-09-19T02:35:01;220.55;;;202.80;;
65037;SDS011;51605;47.040;15.294;2023-09-19T02:37:29;95.38;;;86.85;;
65037;SDS011;51605;47.040;15.294;2023-09-19T02:39:56;84.88;;;79.47;;
65037;SDS011;51605;47.040;15.294;2023-09-19T02:42:21;214.83;;;103.87;;
65037;SDS011;51605;47.040;15.294;2023-09-19T02:44:47;182.73;;;157.32;;
65037;SDS011;51605;47.040;15.294;2023-09-19T02:47:13;221.87;;;157.10;;
65037;SDS011;51605;47.040;15.294;2023-09-19T02:52:06;168.60;;;153.70;;
65037;SDS011;51605;47.040;15.294;2023-09-19T02:54:32;391.40;;;183.10;;
65037;SDS011;51605;47.040;15.294;2023-09-19T02:56:58;396.33;;;179.15;;
65037;SDS011;51605;47.040;15.294;2023-09-19T02:59:24;219.68;;;199.57;;
65037;SDS011;51605;47.040;15.294;2023-09-19T03:01:50;368.53;;;118.00;;
65037;SDS011;51605;47.040;15.294;2023-09-19T03:04:15;267.20;;;206.40;;
65037;SDS011;51605;47.040;15.294;2023-09-19T03:06:45;476.42;;;391.20;;
65037;SDS011;51605;47.040;15.294;2023-09-19T03:09:11;477.83;;;381.55;;
65037;SDS011;51605;47.040;15.294;2023-09-19T03:11:37;108.53;;;99.80;;
65037;SDS011;51605;47.040;15.294;2023-09-19T03:14:05;344.75;;;124.88;;
65037;SDS011;51605;47.040;15.294;2023-09-19T03:16:30;322.23;;;151.13;;
65037;SDS011;51605;47.040;15.294;2023-09-19T03:18:56;119.73;;;103.73;;
65037;SDS011;51605;47.040;15.294;2023-09-19T03:21:23;235.80;;;161.15;;
65037;SDS011;51605;47.040;15.294;2023-09-19T03:23:49;75.07;;;67.10;;
65037;SDS011;51605;47.040;15.294;2023-09-19T03:26:14;151.30;;;138.27;;
65037;SDS011;51605;47.040;15.294;2023-09-19T03:28:41;341.07;;;134.13;;
65037;SDS011;51605;47.040;15.294;2023-09-19T03:31:08;201.90;;;186.35;;
65037;SDS011;51605;47.040;15.294;2023-09-19T03:33:34;280.85;;;193.00;;
65037;SDS011;51605;47.040;15.294;2023-09-19T03:36:00;74.43;;;69.60;;
65037;SDS011;51605;47.040;15.294;2023-09-19T03:38:29;213.00;;;192.77;;
65037;SDS011;51605;47.040;15.294;2023-09-19T03:40:56;352.38;;;224.60;;
65037;SDS011;51605;47.040;15.294;2023-09-19T03:43:22;69.30;;;64.97;;
65037;SDS011;51605;47.040;15.294;2023-09-19T03:45:48;142.63;;;48.85;;
65037;SDS011;51605;47.040;15.294;2023-09-19T03:48:14;227.63;;;66.40;;
65037;SDS011;51605;47.040;15.294;2023-09-19T03:50:40;266.40;;;153.70;;
65037;SDS011;51605;47.040;15.294;2023-09-19T03:53:05;92.85;;;86.97;;
65037;SDS011;51605;47.040;15.294;2023-09-19T03:55:34;414.38;;;163.23;;
65037;SDS011;51605;47.040;15.294;2023-09-19T03:58:03;39.35;;;34.60;;
65037;SDS011;51605;47.040;15.294;2023-09-19T04:00:30;102.65;;;93.65;;
65037;SDS011;51605;47.040;15.294;2023-09-19T04:02:55;235.57;;;216.02;;
65037;SDS011;51605;47.040;15.294;2023-09-19T04:05:22;862.87;;;473.23;;
65037;SDS011;51605;47.040;15.294;2023-09-19T04:07:48;381.20;;;330.70;;
65037;SDS011;51605;47.040;15.294;2023-09-19T04:10:15;279.15;;;254.55;;
65037;SDS011;51605;47.040;15.294;2023-09-19T04:12:47;205.73;;;130.70;;
65037;SDS011;51605;47.040;15.294;2023-09-19T04:15:19;117.90;;;107.82;;
65037;SDS011;51605;47.040;15.294;2023-09-19T04:17:48;74.05;;;68.57;;
65037;SDS011;51605;47.040;15.294;2023-09-19T04:20:17;121.03;;;113.20;;
65037;SDS011;51605;47.040;15.294;2023-09-19T04:22:44;147.73;;;136.05;;
65037;SDS011;51605;47.040;15.294;2023-09-19T04:25:11;163.95;;;150.82;;
65037;SDS011;51605;47.040;15.294;2023-09-19T04:27:37;378.75;;;345.05;;
65037;SDS011;51605;47.040;15.294;2023-09-19T04:30:03;200.60;;;183.30;;
65037;SDS011;51605;47.040;15.294;2023-09-19T04:32:35;316.88;;;177.40;;
65037;SDS011;51605;47.040;15.294;2023-09-19T04:35:03;248.20;;;193.90;;
65037;SDS011;51605;47.040;15.294;2023-09-19T04:37:31;205.02;;;135.07;;
65037;SDS011;51605;47.040;15.294;2023-09-19T04:39:57;191.40;;;170.25;;
65037;SDS011;51605;47.040;15.294;2023-09-19T04:42:23;430.87;;;127.03;;
65037;SDS011;51605;47.040;15.294;2023-09-19T04:44:50;354.75;;;258.65;;
65037;SDS011;51605;47.040;15.294;2023-09-19T04:47:17;184.93;;;122.20;;
65037;SDS011;51605;47.040;15.294;2023-09-19T04:49:44;109.63;;;102.33;;
65037;SDS011;51605;47.040;15.294;2023-09-19T04:52:09;316.20;;;204.98;;
65037;SDS011;51605;47.040;15.294;2023-09-19T04:54:35;153.50;;;136.43;;
65037;SDS011;51605;47.040;15.294;2023-09-19T04:57:01;353.13;;;135.50;;
65037;SDS011;51605;47.040;15.294;2023-09-19T04:59:26;629.47;;;281.60;;
65037;SDS011;51605;47.040;15.294;2023-09-19T05:01:53;412.73;;;248.57;;
65037;SDS011;51605;47.040;15.294;2023-09-19T05:04:19;192.55;;;179.30;;
65037;SDS011;51605;47.040;15.294;2023-09-19T05:06:44;327.52;;;145.77;;
65037;SDS011;51605;47.040;15.294;2023-09-19T05:09:10;465.73;;;228.03;;
65037;SDS011;51605;47.040;15.294;2023-09-19T05:11:36;514.47;;;217.10;;
65037;SDS011;51605;47.040;15.294;2023-09-19T05:14:03;246.57;;;157.00;;
65037;SDS011;51605;47.040;15.294;2023-09-19T05:16:29;315.25;;;150.13;;
65037;SDS011;51605;47.040;15.294;2023-09-19T05:18:58;455.00;;;258.70;;
65037;SDS011;51605;47.040;15.294;2023-09-19T05:21:25;330.42;;;238.35;;
65037;SDS011;51605;47.040;15.294;2023-09-19T05:23:54;400.33;;;270.42;;
65037;SDS011;51605;47.040;15.294;2023-09-19T05:26:19;154.85;;;142.20;;
65037;SDS011;51605;47.040;15.294;2023-09-19T05:28:45;252.53;;;230.43;;
65037;SDS011;51605;47.040;15.294;2023-09-19T05:31:13;184.98;;;86.10;;
65037;SDS011;51605;47.040;15.294;2023-09-19T05:33:39;114.90;;;107.50;;
65037;SDS011;51605;47.040;15.294;2023-09-19T05:36:04;131.77;;;121.57;;
65037;SDS011;51605;47.040;15.294;2023-09-19T05:38:30;45.25;;;42.10;;
65037;SDS011;51605;47.040;15.294;2023-09-19T05:40:57;61.10;;;36.60;;
65037;SDS011;51605;47.040;15.294;2023-09-19T05:43:23;318.40;;;82.20;;
65037;SDS011;51605;47.040;15.294;2023-09-19T05:45:49;293.17;;;267.80;;
65037;SDS011;51605;47.040;15.294;2023-09-19T05:48:17;305.10;;;273.83;;
65037;SDS011;51605;47.040;15.294;2023-09-19T05:50:42;592.20;;;305.98;;
65037;SDS011;51605;47.040;15.294;2023-09-19T05:53:08;171.97;;;158.30;;
65037;SDS011;51605;47.040;15.294;2023-09-19T05:55:37;130.40;;;110.05;;
65037;SDS011;51605;47.040;15.294;2023-09-19T05:58:03;166.50;;;152.33;;
65037;SDS011;51605;47.040;15.294;2023-09-19T06:00:30;97.07;;;90.75;;
65037;SDS011;51605;47.040;15.294;2023-09-19T06:02:57;206.32;;;151.75;;
65037;SDS011;51605;47.040;15.294;2023-09-19T06:05:23;379.80;;;207.82;;
65037;SDS011;51605;47.040;15.294;2023-09-19T06:07:54;1121.93;;;425.98;;
65037;SDS011;51605;47.040;15.294;2023-09-19T06:10:19;304.90;;;181.90;;
65037;SDS011;51605;47.040;15.294;2023-09-19T06:12:46;654.23;;;293.33;;
65037;SDS011;51605;47.040;15.294;2023-09-19T06:15:13;210.98;;;124.85;;
65037;SDS011;51605;47.040;15.294;2023-09-19T06:17:48;1787.07;;;402.75;;
65037;SDS011;51605;47.040;15.294;2023-09-19T06:20:15;1153.50;;;462.13;;
65037;SDS011;51605;47.040;15.294;2023-09-19T06:22:42;298.27;;;149.10;;
65037;SDS011;51605;47.040;15.294;2023-09-19T06:25:09;690.35;;;347.98;;
65037;SDS011;51605;47.040;15.294;2023-09-19T06:27:40;1999.90;;;626.70;;
65037;SDS011;51605;47.040;15.294;2023-09-19T06:32:34;1399.97;;;573.97;;
65037;SDS011;51605;47.040;15.294;2023-09-19T06:34:59;627.72;;;375.88;;
65037;SDS011;51605;47.040;15.294;2023-09-19T06:37:28;527.90;;;322.10;;
65037;SDS011;51605;47.040;15.294;2023-09-19T06:39:55;1999.90;;;612.80;;
65037;SDS011;51605;47.040;15.294;2023-09-19T06:44:48;1102.22;;;603.90;;
65037;SDS011;51605;47.040;15.294;2023-09-19T06:47:14;1268.63;;;563.88;;
65037;SDS011;51605;47.040;15.294;2023-09-19T06:49:41;1552.40;;;555.85;;
65037;SDS011;51605;47.040;15.294;2023-09-19T06:52:09;335.05;;;230.90;;
65037;SDS011;51605;47.040;15.294;2023-09-19T06:54:35;1428.55;;;601.65;;
65037;SDS011;51605;47.040;15.294;2023-09-19T06:57:01;1686.13;;;525.60;;
65037;SDS011;51605;47.040;15.294;2023-09-19T06:59:26;1999.90;;;664.53;;
65037;SDS011;51605;47.040;15.294;2023-09-19T07:01:52;1999.90;;;723.30;;
65037;SDS011;51605;47.040;15.294;2023-09-19T07:04:18;994.53;;;536.78;;
65037;SDS011;51605;47.040;15.294;2023-09-19T07:06:50;679.83;;;325.10;;
65037;SDS011;51605;47.040;15.294;2023-09-19T07:09:15;717.00;;;395.02;;
65037;SDS011;51605;47.040;15.294;2023-09-19T07:11:42;290.58;;;231.88;;
65037;SDS011;51605;47.040;15.294;2023-09-19T07:14:08;384.77;;;343.23;;
65037;SDS011;51605;47.040;15.294;2023-09-19T07:16:36;252.90;;;226.30;;
65037;SDS011;51605;47.040;15.294;2023-09-19T07:19:04;390.23;;;285.73;;
65037;SDS011;51605;47.040;15.294;2023-09-19T07:21:29;1856.75;;;615.28;;
65037;SDS011;51605;47.040;15.294;2023-09-19T07:23:55;1117.20;;;485.17;;
65037;SDS011;51605;47.040;15.294;2023-09-19T07:26:21;1422.82;;;566.83;;
65037;SDS011;51605;47.040;15.294;2023-09-19T07:28:47;909.83;;;540.90;;
65037;SDS011;51605;47.040;15.294;2023-09-19T07:31:12;1645.93;;;629.00;;
65037;SDS011;51605;47.040;15.294;2023-09-19T07:33:39;1830.32;;;630.83;;
65037;SDS011;51605;47.040;15.294;2023-09-19T07:36:05;1280.53;;;496.58;;
65037;SDS011;51605;47.040;15.294;2023-09-19T07:38:31;377.92;;;240.77;;
65037;SDS011;51605;47.040;15.294;2023-09-19T07:41:00;1563.82;;;621.22;;
65037;SDS011;51605;47.040;15.294;2023-09-19T07:43:27;1999.90;;;647.53;;
65037;SDS011;51605;47.040;15.294;2023-09-19T07:45:53;902.35;;;398.10;;
65037;SDS011;51605;47.040;15.294;2023-09-19T07:48:18;1775.97;;;760.47;;
65037;SDS011;51605;47.040;15.294;2023-09-19T07:50:44;285.00;;;203.80;;
65037;SDS011;51605;47.040;15.294;2023-09-19T07:53:10;1090.97;;;447.80;;
65037;SDS011;51605;47.040;15.294;2023-09-19T07:55:38;821.13;;;371.30;;
65037;SDS011;51605;47.040;15.294;2023-09-19T07:58:06;325.40;;;296.88;;
65037;SDS011;51605;47.040;15.294;2023-09-19T08:00:32;1186.20;;;503.83;;
65037;SDS011;51605;47.040;15.294;2023-09-19T08:03:00;327.23;;;296.58;;
65037;SDS011;51605;47.040;15.294;2023-09-19T08:05:26;967.00;;;398.65;;
65037;SDS011;51605;47.040;15.294;2023-09-19T08:07:51;457.07;;;198.40;;
65037;SDS011;51605;47.040;15.294;2023-09-19T08:10:17;1418.83;;;489.33;;
65037;SDS011;51605;47.040;15.294;2023-09-19T08:12:44;1473.80;;;389.38;;
65037;SDS011;51605;47.040;15.294;2023-09-19T08:17:47;1999.90;;;597.67;;
65037;SDS011;51605;47.040;15.294;2023-09-19T08:22:43;1611.18;;;596.22;;
65037;SDS011;51605;47.040;15.294;2023-09-19T08:25:12;765.28;;;466.02;;
65037;SDS011;51605;47.040;15.294;2023-09-19T08:27:38;222.67;;;204.73;;
65037;SDS011;51605;47.040;15.294;2023-09-19T08:30:04;387.03;;;351.90;;
65037;SDS011;51605;47.040;15.294;2023-09-19T08:32:31;519.25;;;439.10;;
65037;SDS011;51605;47.040;15.294;2023-09-19T08:34:57;765.38;;;412.50;;
65037;SDS011;51605;47.040;15.294;2023-09-19T08:37:22;390.63;;;349.50;;
65037;SDS011;51605;47.040;15.294;2023-09-19T08:39:51;154.05;;;140.20;;
65037;SDS011;51605;47.040;15.294;2023-09-19T08:42:16;835.03;;;476.50;;
65037;SDS011;51605;47.040;15.294;2023-09-19T08:44:43;400.27;;;224.20;;
65037;SDS011;51605;47.040;15.294;2023-09-19T08:47:09;872.13;;;466.73;;
65037;SDS011;51605;47.040;15.294;2023-09-19T08:52:27;581.45;;;311.58;;
65037;SDS011;51605;47.040;15.294;2023-09-19T08:54:59;1095.35;;;549.22;;
65037;SDS011;51605;47.040;15.294;2023-09-19T08:57:29;189.88;;;171.07;;
65037;SDS011;51605;47.040;15.294;2023-09-19T09:00:01;208.60;;;193.73;;
65037;SDS011;51605;47.040;15.294;2023-09-19T09:02:30;120.32;;;112.43;;
65037;SDS011;51605;47.040;15.294;2023-09-19T09:04:59;141.27;;;132.00;;
65037;SDS011;51605;47.040;15.294;2023-09-19T09:07:25;126.23;;;118.07;;
65037;SDS011;51605;47.040;15.294;2023-09-19T09:09:53;141.32;;;132.13;;
65037;SDS011;51605;47.040;15.294;2023-09-19T09:12:19;270.33;;;249.07;;
65037;SDS011;51605;47.040;15.294;2023-09-19T09:14:45;150.23;;;140.47;;
65037;SDS011;51605;47.040;15.294;2023-09-19T09:17:13;210.10;;;195.43;;
65037;SDS011;51605;47.040;15.294;2023-09-19T09:19:40;162.45;;;152.30;;
65037;SDS011;51605;47.040;15.294;2023-09-19T09:22:09;451.13;;;413.13;;
65037;SDS011;51605;47.040;15.294;2023-09-19T09:24:37;277.92;;;256.88;;
65037;SDS011;51605;47.040;15.294;2023-09-19T09:27:15;158.65;;;147.88;;
65037;SDS011;51605;47.040;15.294;2023-09-19T09:29:48;270.15;;;249.13;;
65037;SDS011;51605;47.040;15.294;2023-09-19T09:32:22;249.38;;;230.77;;
65037;SDS011;51605;47.040;15.294;2023-09-19T09:34:54;241.55;;;224.18;;
65037;SDS011;51605;47.040;15.294;2023-09-19T09:37:21;423.33;;;386.83;;
65037;SDS011;51605;47.040;15.294;2023-09-19T09:39:52;246.45;;;228.35;;
65037;SDS011;51605;47.040;15.294;2023-09-19T09:45:23;104.43;;;97.68;;
65037;SDS011;51605;47.040;15.294;2023-09-19T09:47:59;167.43;;;156.27;;
65037;SDS011;51605;47.040;15.294;2023-09-19T09:50:34;98.68;;;92.38;;
65037;SDS011;51605;47.040;15.294;2023-09-19T09:53:19;165.90;;;155.07;;
65037;SDS011;51605;47.040;15.294;2023-09-19T09:58:37;184.75;;;170.93;;
65037;SDS011;51605;47.040;15.294;2023-09-19T10:01:14;136.32;;;127.75;;
65037;SDS011;51605;47.040;15.294;2023-09-19T10:03:41;139.45;;;130.57;;
65037;SDS011;51605;47.040;15.294;2023-09-19T10:06:16;226.75;;;212.25;;
65037;SDS011;51605;47.040;15.294;2023-09-19T10:08:58;180.80;;;168.90;;
65037;SDS011;51605;47.040;15.294;2023-09-19T10:11:44;96.63;;;90.05;;
65037;SDS011;51605;47.040;15.294;2023-09-19T10:14:14;165.93;;;154.68;;
65037;SDS011;51605;47.040;15.294;2023-09-19T10:16:48;188.25;;;175.05;;
65037;SDS011;51605;47.040;15.294;2023-09-19T10:19:21;176.35;;;164.65;;
65037;SDS011;51605;47.040;15.294;2023-09-19T10:22:09;141.30;;;132.55;;
65037;SDS011;51605;47.040;15.294;2023-09-19T10:24:38;97.13;;;91.15;;
65037;SDS011;51605;47.040;15.294;2023-09-19T10:27:05;88.25;;;82.88;;
65037;SDS011;51605;47.040;15.294;2023-09-19T10:29:33;95.72;;;89.85;;
65037;SDS011;51605;47.040;15.294;2023-09-19T10:32:04;105.97;;;99.55;;
65037;SDS011;51605;47.040;15.294;2023-09-19T10:34:32;139.65;;;131.13;;
65037;SDS011;51605;47.040;15.294;2023-09-19T10:37:01;197.48;;;184.57;;
65037;SDS011;51605;47.040;15.294;2023-09-19T10:39:31;185.38;;;173.30;;
65037;SDS011;51605;47.040;15.294;2023-09-19T10:41:58;209.32;;;196.00;;
65037;SDS011;51605;47.040;15.294;2023-09-19T10:44:31;289.20;;;271.20;;
65037;SDS011;51605;47.040;15.294;2023-09-19T10:46:58;319.75;;;296.08;;
65037;SDS011;51605;47.040;15.294;2023-09-19T10:49:24;328.13;;;306.45;;
65037;SDS011;51605;47.040;15.294;2023-09-19T10:51:52;104.70;;;97.97;;
65037;SDS011;51605;47.040;15.294;2023-09-19T10:54:24;123.13;;;115.40;;
65037;SDS011;51605;47.040;15.294;2023-09-19T10:56:54;127.32;;;119.65;;
65037;SDS011;51605;47.040;15.294;2023-09-19T10:59:23;141.50;;;132.88;;
65037;SDS011;51605;47.040;15.294;2023-09-19T11:01:50;209.07;;;195.90;;
65037;SDS011;51605;47.040;15.294;2023-09-19T11:04:28;171.38;;;160.10;;
65037;SDS011;51605;47.040;15.294;2023-09-19T11:07:02;243.10;;;227.65;;
65037;SDS011;51605;47.040;15.294;2023-09-19T11:09:51;198.23;;;185.68;;
65037;SDS011;51605;47.040;15.294;2023-09-19T11:14:54;134.25;;;125.90;;
65037;SDS011;51605;47.040;15.294;2023-09-19T11:30:31;126.32;;;118.55;;
65037;SDS011;51605;47.040;15.294;2023-09-19T11:43:45;191.80;;;179.85;;
65037;SDS011;51605;47.040;15.294;2023-09-19T11:46:11;154.47;;;144.43;;
65037;SDS011;51605;47.040;15.294;2023-09-19T11:48:41;209.25;;;195.93;;
65037;SDS011;51605;47.040;15.294;2023-09-19T11:51:12;164.57;;;153.48;;
65037;SDS011;51605;47.040;15.294;2023-09-19T11:53:47;100.82;;;94.53;;
65037;SDS011;51605;47.040;15.294;2023-09-19T11:56:15;149.35;;;140.00;;
65037;SDS011;51605;47.040;15.294;2023-09-19T11:58:46;133.43;;;124.85;;
65037;SDS011;51605;47.040;15.294;2023-09-19T12:01:14;210.98;;;197.75;;
65037;SDS011;51605;47.040;15.294;2023-09-19T12:03:47;262.23;;;241.90;;
65037;SDS011;51605;47.040;15.294;2023-09-19T12:06:19;126.82;;;118.78;;
65037;SDS011;51605;47.040;15.294;2023-09-19T12:08:47;216.75;;;195.60;;
65037;SDS011;51605;47.040;15.294;2023-09-19T12:13:43;94.97;;;88.93;;
65037;SDS011;51605;47.040;15.294;2023-09-19T12:16:14;85.72;;;80.53;;
65037;SDS011;51605;47.040;15.294;2023-09-19T12:18:46;84.15;;;78.85;;
65037;SDS011;51605;47.040;15.294;2023-09-19T12:21:24;160.77;;;150.52;;
65037;SDS011;51605;47.040;15.294;2023-09-19T12:26:41;173.90;;;162.73;;
65037;SDS011;51605;47.040;15.294;2023-09-19T12:29:18;115.82;;;108.28;;
65037;SDS011;51605;47.040;15.294;2023-09-19T12:31:49;104.13;;;97.00;;
65037;SDS011;51605;47.040;15.294;2023-09-19T12:34:19;39.72;;;37.13;;
65037;SDS011;51605;47.040;15.294;2023-09-19T12:36:46;86.60;;;80.47;;
65037;SDS011;51605;47.040;15.294;2023-09-19T12:39:22;578.90;;;507.43;;
65037;SDS011;51605;47.040;15.294;2023-09-19T12:44:16;129.70;;;121.43;;
65037;SDS011;51605;47.040;15.294;2023-09-19T12:46:43;97.20;;;91.10;;
65037;SDS011;51605;47.040;15.294;2023-09-19T12:51:45;79.25;;;74.20;;
65037;SDS011;51605;47.040;15.294;2023-09-19T12:54:12;147.85;;;138.88;;
65037;SDS011;51605;47.040;15.294;2023-09-19T12:56:44;127.05;;;119.03;;
65037;SDS011;51605;47.040;15.294;2023-09-19T12:59:12;77.10;;;72.18;;
65037;SDS011;51605;47.040;15.294;2023-09-19T13:01:40;177.88;;;166.30;;
65037;SDS011;51605;47.040;15.294;2023-09-19T13:04:19;68.45;;;63.85;;
65037;SDS011;51605;47.040;15.294;2023-09-19T13:06:51;140.13;;;130.98;;
65037;SDS011;51605;47.040;15.294;2023-09-19T13:09:19;337.30;;;309.33;;
65037;SDS011;51605;47.040;15.294;2023-09-19T13:11:46;194.88;;;180.88;;
65037;SDS011;51605;47.040;15.294;2023-09-19T13:14:24;102.10;;;95.18;;
65037;SDS011;51605;47.040;15.294;2023-09-19T13:17:08;91.28;;;85.00;;
65037;SDS011;51605;47.040;15.294;2023-09-19T13:19:48;158.85;;;148.68;;
65037;SDS011;51605;47.040;15.294;2023-09-19T13:25:13;151.48;;;141.98;;
65037;SDS011;51605;47.040;15.294;2023-09-19T13:27:43;80.10;;;74.90;;
65037;SDS011;51605;47.040;15.294;2023-09-19T13:30:11;139.02;;;130.25;;
65037;SDS011;51605;47.040;15.294;2023-09-19T13:32:38;117.43;;;109.55;;
65037;SDS011;51605;47.040;15.294;2023-09-19T13:35:05;73.55;;;68.70;;
65037;SDS011;51605;47.040;15.294;2023-09-19T13:37:35;63.30;;;59.22;;
65037;SDS011;51605;47.040;15.294;2023-09-19T13:40:06;114.50;;;105.97;;
65037;SDS011;51605;47.040;15.294;2023-09-19T13:42:33;131.48;;;123.07;;
65037;SDS011;51605;47.040;15.294;2023-09-19T13:44:59;130.05;;;121.57;;
65037;SDS011;51605;47.040;15.294;2023-09-19T13:47:24;209.45;;;195.02;;
65037;SDS011;51605;47.040;15.294;2023-09-19T13:49:51;71.60;;;66.18;;
65037;SDS011;51605;47.040;15.294;2023-09-19T13:52:20;91.43;;;84.93;;
65037;SDS011;51605;47.040;15.294;2023-09-19T13:54:48;91.68;;;85.57;;
65037;SDS011;51605;47.040;15.294;2023-09-19T13:57:17;109.38;;;101.72;;
65037;SDS011;51605;47.040;15.294;2023-09-19T13:59:43;108.50;;;101.35;;
65037;SDS011;51605;47.040;15.294;2023-09-19T14:02:09;143.00;;;133.83;;
65037;SDS011;51605;47.040;15.294;2023-09-19T14:04:35;159.20;;;148.53;;
65037;SDS011;51605;47.040;15.294;2023-09-19T14:07:00;176.75;;;165.60;;
65037;SDS011;51605;47.040;15.294;2023-09-19T14:09:27;139.88;;;131.07;;
65037;SDS011;51605;47.040;15.294;2023-09-19T14:11:52;95.75;;;89.57;;
65037;SDS011;51605;47.040;15.294;2023-09-19T14:14:19;85.85;;;80.35;;
65037;SDS011;51605;47.040;15.294;2023-09-19T14:16:45;188.82;;;177.07;;
65037;SDS011;51605;47.040;15.294;2023-09-19T14:19:12;130.40;;;121.82;;
65037;SDS011;51605;47.040;15.294;2023-09-19T14:24:04;202.13;;;188.73;;
65037;SDS011;51605;47.040;15.294;2023-09-19T14:26:34;219.55;;;205.35;;
65037;SDS011;51605;47.040;15.294;2023-09-19T14:29:01;129.55;;;121.00;;
65037;SDS011;51605;47.040;15.294;2023-09-19T14:31:27;170.93;;;159.70;;
65037;SDS011;51605;47.040;15.294;2023-09-19T14:33:53;165.97;;;155.13;;
65037;SDS011;51605;47.040;15.294;2023-09-19T14:36:24;206.90;;;193.50;;
65037;SDS011;51605;47.040;15.294;2023-09-19T14:38:52;233.68;;;218.20;;
65037;SDS011;51605;47.040;15.294;2023-09-19T14:41:24;101.45;;;94.95;;
65037;SDS011;51605;47.040;15.294;2023-09-19T14:43:53;185.93;;;173.90;;
65037;SDS011;51605;47.040;15.294;2023-09-19T14:46:20;171.93;;;160.90;;
65037;SDS011;51605;47.040;15.294;2023-09-19T14:48:46;129.48;;;120.30;;
65037;SDS011;51605;47.040;15.294;2023-09-19T14:51:12;128.33;;;120.33;;
65037;SDS011;51605;47.040;15.294;2023-09-19T14:53:39;151.43;;;141.25;;
65037;SDS011;51605;47.040;15.294;2023-09-19T14:56:07;96.57;;;90.22;;
65037;SDS011;51605;47.040;15.294;2023-09-19T14:58:33;176.90;;;165.45;;
65037;SDS011;51605;47.040;15.294;2023-09-19T15:01:06;142.70;;;133.55;;
65037;SDS011;51605;47.040;15.294;2023-09-19T15:03:33;204.32;;;191.30;;
65037;SDS011;51605;47.040;15.294;2023-09-19T15:06:01;118.18;;;110.75;;
65037;SDS011;51605;47.040;15.294;2023-09-19T15:08:31;179.07;;;167.40;;
65037;SDS011;51605;47.040;15.294;2023-09-19T15:10:59;87.63;;;81.78;;
65037;SDS011;51605;47.040;15.294;2023-09-19T15:13:29;47.03;;;43.40;;
65037;SDS011;51605;47.040;15.294;2023-09-19T15:16:01;224.52;;;201.73;;
65037;SDS011;51605;47.040;15.294;2023-09-19T15:18:28;331.50;;;303.42;;
65037;SDS011;51605;47.040;15.294;2023-09-19T15:20:55;228.30;;;183.18;;